Crew | Aerofun Virtual



 METAR AND TAF INFORMATION
METAR FOR GCLP
ADDS - METARS form results

(1747 UTC 29 January 2020)
Data provider http://aviationweather.gov/metar/data/
 
METAR text: GCLP 291730Z 08004KT 020V120 CAVOK 20/14 Q1022 NOSIG
Conditions at: GCLP (LAS PALMAS/GANDO, ES) observed 1730 UTC 29 January 2020
Temperature: 20.0°C (68°F)
Dewpoint: 14.0°C (57°F) [RH = 68%]
Pressure (altimeter): 30.18 inches Hg (1022.0 mb)
Winds: from the E (80 degrees) at 5 MPH (4 knots; 2.1 m/s)
Visibility: 6 or more miles (10+ km)
Ceiling: ceiling and visibility are OK
Clouds: unknown
Weather: no significant weather observed at this time

METAR text: GCLP 291700Z 10003KT 060V160 CAVOK 20/14 Q1022 NOSIG
Conditions at: GCLP (LAS PALMAS/GANDO, ES) observed 1700 UTC 29 January 2020
Temperature: 20.0°C (68°F)
Dewpoint: 14.0°C (57°F) [RH = 68%]
Pressure (altimeter): 30.18 inches Hg (1022.0 mb)
Winds: from the E (100 degrees) at 3 MPH (3 knots; 1.5 m/s)
Visibility: 6 or more miles (10+ km)
Ceiling: ceiling and visibility are OK
Clouds: unknown
Weather: no significant weather observed at this time

Forecast for: GCLP (LAS PALMAS/GANDO, ES)
Text: TAF GCLP 291400Z 2915/3015 14010KT CAVOK TX24/3015Z TN16/3006Z
Forecast period: 1500 to 1700 UTC 29 January 2020
Forecast type: FROM: standard forecast or significant change
Winds: from the SE (140 degrees) at 12 MPH (10 knots; 5.1 m/s)
Visibility: 6 or more miles 10+ km)
Ceiling: unknown
Clouds: missing
Weather: no significant weather forecast for this period
Text: BECMG 2917/2919 04007KT
Forecast period: 1700 UTC 29 January 2020 to 1500 UTC 30 January 2020
Forecast type: BECOMING: Conditions expected to become as follows by 1900 UTC 29 January 2020
Winds: from the NE (40 degrees) at 8 MPH (7 knots; 3.6 m/s)
Visibility: 6 or more miles 10+ km)
Ceiling: unknown
Clouds: missing
Weather: no significant weather forecast for this period

 AIRPORT MAP

 RUNWAY INFORMATION
Runway 03L Runway length 10171 ft Runway width 148 ft
Runway elevation 78 ft Runway displaced threshold 0 ft Runway heading 22
Runway 21R Runway length 10171 ft Runway width 148 ft
Runway elevation 33 ft Runway displaced threshold 0 ft Runway heading 202
Runway 03R Runway length 10171 ft Runway width 148 ft
Runway elevation 69 ft Runway displaced threshold 0 ft Runway heading 22
Runway 21L Runway length 10171 ft Runway width 148 ft
Runway elevation 27 ft Runway displaced threshold 0 ft Runway heading 202

 AIRPORT FREQUENCIES
Type APP Name APP Frequency 120.9 MHZ
Type ATIS Name ATIS Frequency 118.6 MHZ
Type GND Name GND Frequency 121.7 MHZ
Type TWR Name TWR Frequency 118.3 MHZ

 AIRPORT NEAR NAVIGATION AIDS
Type VOR-DME Name Gran Canaria Frequency 112900 KHZ
Type VOR-DME Name Gran Canaria Frequency 115000 KHZ
Type TACAN Name Gran Canaria Frequency 115600 KHZ
Type NDB Name Gran Canaria Frequency 365 KHZ